Ana Sayfa
METAR-TAF:

METAR-TAF

Havaalanları :

Denizli Çardak Havalimanı

Çardak, Türkiye

Enlem: 37-47N, Boylam: 029-42E, yükseklik: 849 m

Güncel hava durumu gözlemi

Rapor saat 09:50 UTC de 22 dakika önce yapıldı.
Rüzgar güney/güneydoğudan 10 kt
Sıcaklık 17°C
Nem 52%
Basınç 1018 hPa
Görüş mesafesi 10 km veya daha fazla
3500 ft yükseklikte parçalı bulutlu
10000 ft yükseklikte parçalı çok bulutlu

METAR: LTAY 190950Z 16010KT 9999 SCT035 BKN100 17/07 Q1018

Saat: 13:12 (10:12 UTC)

Tahmin

Rapor saat 07:40 UTC de 2 saat ve 32 dakika önce yapıldı.
Ayın 19'si saat 09 UTC'den ayın 19'si saat 18 UTC'ye kadar geçerli Tahmin
Rüzgar değişken yönden 2 kt
Görüş mesafesi 10 km veya daha fazla
3500 ft yükseklikte parçalı bulutlu
10000 ft yükseklikte parçalı çok bulutlu

TAF: LTAY 190740Z 1909/1918 VRB02KT 9999 SCT035 BKN100

4.000'den fazla havaalanı için hava durumu gözlemleri ve tahminleri (METAR ve TAF raporları).

Kullanılabilir istasyonlar harita üzerinde sarı ve kırmızı noktalarla gösterilir.

İstasyonun adını görmek için fareyi noktanın üzerinde gezdirin.

Sonrasında hava gözlem ve tahminlerini görmek için tıklayın.

Haritayı değiştirmek için: yaklaştırmak için siyah artı işaretli yeşil düğmeye ve uzaklaştırmak için de eksi işaretli düğmeye hızla tıklayın; bitişik haritalar için yeşil okları kullanın.


METAR-TAF: